createdAt,value
2023-10-09T00:04:46.664Z,98584.13
2023-10-09T00:09:53.998Z,98576.72
2023-10-09T00:15:01.178Z,98576.50
2023-10-09T00:20:18.578Z,98564.31
2023-10-09T00:25:24.173Z,98567.00
2023-10-09T00:30:31.318Z,98559.41
2023-10-09T00:35:47.992Z,98541.78
2023-10-09T00:41:05.290Z,98545.94
2023-10-09T00:46:13.649Z,98546.81
2023-10-09T00:51:19.936Z,98544.66
2023-10-09T00:56:39.122Z,98543.78
2023-10-09T01:01:57.884Z,98538.06
2023-10-09T01:07:10.239Z,98528.72
2023-10-09T01:12:19.286Z,98524.41
2023-10-09T01:17:36.963Z,98525.09
2023-10-09T01:22:42.953Z,98521.84
2023-10-09T01:27:47.388Z,98521.34
2023-10-09T01:32:51.880Z,98512.44
2023-10-09T01:37:57.459Z,98511.47
2023-10-09T01:43:04.861Z,98504.31
2023-10-09T01:48:09.416Z,98505.63
2023-10-09T01:53:18.878Z,98509.03
2023-10-09T01:58:26.274Z,98504.16
2023-10-09T02:03:30.660Z,98490.16
2023-10-09T02:08:36.922Z,98489.19
2023-10-09T02:13:43.000Z,98487.00
2023-10-09T02:18:55.166Z,98483.03
2023-10-09T02:23:59.239Z,98482.94
2023-10-09T02:29:06.116Z,98486.56
2023-10-09T02:34:11.444Z,98489.03
2023-10-09T02:39:24.957Z,98482.03
2023-10-09T02:44:31.347Z,98484.44
2023-10-09T02:49:35.289Z,98475.75
2023-10-09T02:54:42.821Z,98469.03
2023-10-09T02:59:48.395Z,98465.69
2023-10-09T03:04:51.572Z,98453.66
2023-10-09T03:09:54.697Z,98451.16
2023-10-09T03:15:00.287Z,98457.34
2023-10-09T03:20:13.221Z,98458.00
2023-10-09T03:25:18.189Z,98459.38
2023-10-09T03:30:24.748Z,98442.28
2023-10-09T03:35:28.815Z,98446.66
2023-10-09T03:40:33.282Z,98444.28
2023-10-09T03:45:39.877Z,98453.31
2023-10-09T03:50:44.528Z,98446.22
2023-10-09T03:55:47.821Z,98444.00
2023-10-09T04:00:52.907Z,98441.44
2023-10-09T04:05:56.402Z,98440.56
2023-10-09T04:11:04.974Z,98437.19
2023-10-09T04:16:12.467Z,98442.53
2023-10-09T04:21:21.236Z,98446.69
2023-10-09T04:26:28.821Z,98442.44
2023-10-09T04:31:38.361Z,98446.69
2023-10-09T04:36:48.315Z,98445.63
2023-10-09T04:42:15.048Z,98446.38
2023-10-09T04:47:26.683Z,98443.28
2023-10-09T04:52:43.808Z,98437.09
2023-10-09T04:58:02.598Z,98444.13
2023-10-09T05:03:11.793Z,98451.34
2023-10-09T05:08:20.792Z,98450.47
2023-10-09T05:13:43.727Z,98454.41
2023-10-09T05:18:57.489Z,98447.19
2023-10-09T05:24:20.171Z,98455.19
2023-10-09T05:29:49.305Z,98452.44
2023-10-09T05:35:16.630Z,98463.13
2023-10-09T05:40:32.115Z,98449.91
2023-10-09T05:45:53.175Z,98450.75
2023-10-09T05:51:13.441Z,98454.88
2023-10-09T05:56:34.073Z,98461.59
2023-10-09T06:01:54.753Z,98462.97
2023-10-09T06:07:01.828Z,98466.38
2023-10-09T06:12:23.179Z,98470.22
2023-10-09T06:17:44.385Z,98477.09
2023-10-09T06:22:58.353Z,98484.53
2023-10-09T06:28:02.532Z,98489.53
2023-10-09T06:33:30.446Z,98491.75
2023-10-09T06:38:53.117Z,98488.22
2023-10-09T06:43:56.224Z,98489.34
2023-10-09T06:49:01.042Z,98489.44
2023-10-09T06:54:08.461Z,98481.66
2023-10-09T06:59:17.541Z,98487.16
2023-10-09T07:04:21.255Z,98482.59
2023-10-09T07:09:43.185Z,98490.84
2023-10-09T07:15:12.183Z,98495.78
2023-10-09T07:20:16.638Z,98499.28
2023-10-09T07:25:39.933Z,98487.03
2023-10-09T07:30:43.037Z,98488.72
2023-10-09T07:35:48.955Z,98492.66
2023-10-09T07:40:56.859Z,98487.50
2023-10-09T07:46:25.884Z,98483.59
2023-10-09T07:51:32.851Z,98487.41
2023-10-09T07:56:42.364Z,98492.22
2023-10-09T08:01:54.366Z,98495.31
2023-10-09T08:07:04.167Z,98493.00
2023-10-09T08:12:59.064Z,98491.63
2023-10-09T08:18:11.133Z,98502.13
2023-10-09T08:23:23.328Z,98491.13
2023-10-09T08:28:43.967Z,98483.84
2023-10-09T08:39:16.463Z,98493.53
2023-10-09T08:44:24.309Z,98496.69
2023-10-09T08:49:28.665Z,98499.84
2023-10-09T08:54:34.531Z,98499.06
2023-10-09T08:59:47.177Z,98492.41
2023-10-09T09:04:51.926Z,98498.81
2023-10-09T09:10:01.924Z,98510.81
2023-10-09T09:15:20.043Z,98516.81
2023-10-09T09:20:27.078Z,98527.19
2023-10-09T09:25:46.921Z,98516.28
2023-10-09T09:30:52.855Z,98512.56
2023-10-09T09:36:03.555Z,98523.41
2023-10-09T09:41:08.582Z,98518.53
2023-10-09T09:46:14.645Z,98521.78
2023-10-09T09:51:18.593Z,98513.59
2023-10-09T09:56:25.897Z,98506.84
2023-10-09T10:01:36.395Z,98511.50
2023-10-09T10:06:42.514Z,98517.13
2023-10-09T10:11:47.360Z,98517.13
2023-10-09T10:17:07.553Z,98521.19
2023-10-09T10:22:28.710Z,98507.53
2023-10-09T10:27:34.037Z,98513.56
2023-10-09T10:33:10.276Z,98506.16
2023-10-09T10:38:33.965Z,98501.22
2023-10-09T10:43:48.874Z,98498.88
2023-10-09T10:49:00.466Z,98503.59
2023-10-09T10:54:18.498Z,98494.50
2023-10-09T10:59:26.890Z,98496.16
2023-10-09T11:04:43.012Z,98491.66
2023-10-09T11:10:11.360Z,98490.84
2023-10-09T11:15:29.565Z,98491.06
2023-10-09T11:20:36.322Z,98497.38
2023-10-09T11:25:51.167Z,98500.03
2023-10-09T11:30:56.613Z,98514.94
2023-10-09T11:36:01.739Z,98514.13
2023-10-09T11:41:20.662Z,98511.41
2023-10-09T11:46:42.051Z,98506.13
2023-10-09T11:52:06.630Z,98488.88
2023-10-09T11:57:09.677Z,98472.31
2023-10-09T12:02:14.095Z,98440.38
2023-10-09T12:07:21.712Z,98431.81
2023-10-09T12:12:27.605Z,98447.88
2023-10-09T12:17:30.822Z,98431.44
2023-10-09T12:22:35.362Z,98451.69
2023-10-09T12:27:38.413Z,98457.97
2023-10-09T12:32:41.732Z,98459.03
2023-10-09T12:37:47.209Z,98455.75
2023-10-09T12:42:50.270Z,98422.84
2023-10-09T12:47:53.371Z,98363.78
2023-10-09T12:53:02.984Z,98374.25
2023-10-09T12:58:07.496Z,98393.56
2023-10-09T13:03:17.764Z,98396.53
2023-10-09T13:08:24.607Z,98408.28
2023-10-09T13:13:40.741Z,98405.41
2023-10-09T13:18:50.924Z,98402.75
2023-10-09T13:23:56.588Z,98393.88
2023-10-09T13:29:00.703Z,98399.38
2023-10-09T13:34:04.858Z,98385.44
2023-10-09T13:39:24.982Z,98380.34
2023-10-09T13:44:28.881Z,98372.50
2023-10-09T13:49:32.299Z,98377.88
2023-10-09T13:54:41.805Z,98370.72
2023-10-09T13:59:50.393Z,98368.06
2023-10-09T14:04:55.298Z,98367.44
2023-10-09T14:10:08.733Z,98357.59
2023-10-09T14:15:18.834Z,98356.50
2023-10-09T14:20:32.368Z,98358.84
2023-10-09T14:25:38.665Z,98353.38
2023-10-09T14:30:45.173Z,98337.47
2023-10-09T14:35:49.700Z,98323.34
2023-10-09T14:40:58.799Z,98318.03
2023-10-09T14:46:02.130Z,98324.69
2023-10-09T14:51:07.407Z,98323.59
2023-10-09T14:56:17.304Z,98315.50
2023-10-09T15:01:21.899Z,98314.31
2023-10-09T15:06:28.263Z,98322.75
2023-10-09T15:11:33.354Z,98324.38
2023-10-09T15:16:39.672Z,98325.09
2023-10-09T15:21:45.885Z,98326.72
2023-10-09T15:26:53.486Z,98330.13
2023-10-09T15:31:57.541Z,98336.03
2023-10-09T15:37:00.776Z,98331.50
2023-10-09T15:42:07.580Z,98332.97
2023-10-09T15:47:13.232Z,98339.50
2023-10-09T15:52:17.388Z,98343.50
2023-10-09T15:57:23.171Z,98332.03
2023-10-09T16:02:27.298Z,98335.19
2023-10-09T16:07:30.937Z,98333.16
2023-10-09T16:12:35.352Z,98337.84
2023-10-09T16:17:40.929Z,98342.59
2023-10-09T16:22:46.763Z,98354.97
2023-10-09T16:27:51.867Z,98352.63
2023-10-09T16:32:55.144Z,98352.97
2023-10-09T16:37:58.998Z,98354.81
2023-10-09T16:43:03.532Z,98346.59
2023-10-09T16:48:09.355Z,98369.31
2023-10-09T16:53:12.727Z,98358.19
2023-10-09T16:58:17.214Z,98356.50
2023-10-09T17:03:21.707Z,98357.72
2023-10-09T17:08:30.593Z,98366.59
2023-10-09T17:13:35.100Z,98364.13
2023-10-09T17:18:38.127Z,98353.03
2023-10-09T17:23:43.270Z,98367.28
2023-10-09T17:28:48.260Z,98375.16
2023-10-09T17:33:55.421Z,98385.16
2023-10-09T17:39:01.335Z,98390.75
2023-10-09T17:44:06.444Z,98393.56
2023-10-09T17:49:09.530Z,98377.03
2023-10-09T17:54:14.653Z,98380.91
2023-10-09T17:59:19.392Z,98386.22
2023-10-09T18:04:22.856Z,98400.25
2023-10-09T18:09:31.332Z,98398.56
2023-10-09T18:14:35.902Z,98398.88
2023-10-09T18:19:40.023Z,98389.31
2023-10-09T18:24:43.714Z,98384.75
2023-10-09T18:29:49.715Z,98382.69
2023-10-09T18:34:53.174Z,98394.94
2023-10-09T18:40:00.274Z,98396.53
2023-10-09T18:45:08.130Z,98395.00
2023-10-09T18:50:13.154Z,98396.63
2023-10-09T18:55:19.162Z,98388.06
2023-10-09T19:00:31.489Z,98384.81
2023-10-09T19:05:34.778Z,98377.56
2023-10-09T19:10:38.252Z,98380.78
2023-10-09T19:15:43.211Z,98391.84
2023-10-09T19:20:47.889Z,98387.44
2023-10-09T19:25:53.982Z,98400.97
2023-10-09T19:31:07.157Z,98402.53
2023-10-09T19:36:15.195Z,98396.56
2023-10-09T19:41:20.926Z,98405.44
2023-10-09T19:46:29.249Z,98406.16
2023-10-09T19:51:33.220Z,98415.44
2023-10-09T19:56:38.605Z,98416.78
2023-10-09T20:01:43.129Z,98412.41
2023-10-09T20:06:46.626Z,98416.94
2023-10-09T20:11:49.703Z,98417.19
2023-10-09T20:16:54.353Z,98414.56
2023-10-09T20:21:57.580Z,98421.91
2023-10-09T20:27:00.690Z,98428.53
2023-10-09T20:32:06.910Z,98421.91
2023-10-09T20:37:10.301Z,98412.50
2023-10-09T20:42:13.538Z,98413.66
2023-10-09T20:47:18.200Z,98422.63
2023-10-09T20:52:21.845Z,98429.09
2023-10-09T20:57:24.919Z,98437.47
2023-10-09T21:02:29.452Z,98444.06
2023-10-09T21:07:32.566Z,98446.19
2023-10-09T21:12:36.803Z,98455.16
2023-10-09T21:17:41.349Z,98459.25
2023-10-09T21:22:45.154Z,98460.31
2023-10-09T21:27:48.517Z,98462.72
2023-10-09T21:32:54.875Z,98464.50
2023-10-09T21:38:00.366Z,98471.47
2023-10-09T21:43:08.036Z,98481.34
2023-10-09T21:48:13.635Z,98480.91
2023-10-09T21:53:18.549Z,98472.72
2023-10-09T21:58:21.738Z,98481.78
2023-10-09T22:03:28.463Z,98487.19
2023-10-09T22:08:34.308Z,98488.91
2023-10-09T22:13:37.545Z,98491.22
2023-10-09T22:18:42.962Z,98493.88
2023-10-09T22:23:53.970Z,98494.09
2023-10-09T22:28:57.502Z,98489.72
2023-10-09T22:34:11.726Z,98492.09
2023-10-09T22:39:22.620Z,98488.13
2023-10-09T22:44:29.039Z,98493.16
2023-10-09T22:49:35.705Z,98491.81
2023-10-09T22:54:43.040Z,98501.03
2023-10-09T22:59:46.693Z,98492.53
2023-10-09T23:04:56.750Z,98500.97
2023-10-09T23:10:16.160Z,98503.94
2023-10-09T23:15:35.929Z,98501.09
2023-10-09T23:20:50.986Z,98504.19
2023-10-09T23:25:55.152Z,98492.78
2023-10-09T23:30:59.937Z,98499.31
2023-10-09T23:36:06.101Z,98502.28
2023-10-09T23:41:11.743Z,98496.22
2023-10-09T23:46:18.497Z,98497.69
2023-10-09T23:51:27.993Z,98496.53
2023-10-09T23:56:56.721Z,98498.13
